Flight Track Log - Related Links

Times and Time Zones

All times are in EDT time to prevent confusion due to time zone crossing. See the SWA3313 flight status page for this flight to view local times or setup timezone preferences in your user account.

Time Position Orientation Groundspeed Altitude Reporting Facility
EDT Latitude Longitude Course Direction KTS MPH feet Rate Location/Type
Fri 06:06:39 PM 42.9167 -71.4167 216° Southwest 150 173 1,200  Level KA90
Fri 06:06:57 PM 42.9000 -71.4333 216° Southwest 161 185 1,700 2,077 Climbing KA90
Fri 06:07:57 PM 42.9000 -71.4833 270° West 233 268 3,900 3,115 Climbing KA90
Fri 06:09:08 PM 42.9503 -71.4444 30° Northeast 257 296 8,500 3,481 Climbing Boston Center
Fri 06:10:08 PM 42.9831 -71.3558 63° Northeast 251 289 11,500 3,550 Climbing Boston Center
Fri 06:11:08 PM 43.0153 -71.2503 67° East 276 318 15,600 3,500 Climbing Boston Center
Fri 06:12:08 PM 43.0475 -71.1558 65° Northeast 293 337 18,500 2,300 Climbing Boston Center
Fri 06:13:08 PM 43.0817 -71.0386 68° East 314 361 20,200 2,200 Climbing Boston Center
Fri 06:14:08 PM 43.0239 -70.9150 123° Southeast 330 380 22,900 2,350 Climbing Boston Center
Fri 06:15:08 PM 42.9011 -70.9322 186° South 294 338 24,900 2,050 Climbing Boston Center
Fri 06:16:08 PM 42.7767 -70.9919 199° South 370 426 27,000 2,100 Climbing Boston Center
Fri 06:17:08 PM 42.6867 -71.1322 229° Southwest 416 479 29,100 1,500 Climbing Boston Center
Fri 06:18:08 PM 42.6069 -71.2808 234° Southwest 443 510 30,000 450 Climbing Boston Center
Fri 06:19:08 PM 42.5272 -71.4258 233° Southwest 477 549 30,000 900 Level Boston Center
Fri 06:20:08 PM 42.4450 -71.5650 231° Southwest 483 556 31,800 1,000 Climbing Boston Center
Fri 06:21:08 PM 42.3625 -71.7094 232° Southwest 489 563 32,000 1,000 Climbing Boston Center
Fri 06:22:08 PM 42.2822 -71.8536 233° Southwest 489 563 33,800 1,000 Climbing Boston Center
Fri 06:23:08 PM 42.2017 -71.9944 232° Southwest 489 563 34,000 100 Climbing Boston Center
Fri 06:24:08 PM 42.1228 -72.1350 233° Southwest 489 563 34,000  Level Boston Center
Fri 06:25:08 PM 42.0419 -72.2781 233° Southwest 484 557 34,000  Level Boston Center
Fri 06:26:08 PM 41.9544 -72.4289 232° Southwest 484 557 34,000  Level Boston Center
Fri 06:27:08 PM 41.8731 -72.5711 232° Southwest 484 557 34,000  Level Boston Center
Fri 06:28:08 PM 41.7914 -72.7131 232° Southwest 476 548 34,000  Level Boston Center
Fri 06:29:08 PM 41.7119 -72.8517 233° Southwest 476 548 34,000  Level Boston Center
Fri 06:30:08 PM 41.6281 -72.9928 232° Southwest 486 559 34,000  Level Boston Center
Fri 06:31:08 PM 41.5481 -73.1281 232° Southwest 481 554 34,000  Level Boston Center
Fri 06:32:08 PM 41.4825 -73.2492 234° Southwest 465 535 34,000 -306 Level Boston Center
Fri 06:33:45 PM 41.3517 -73.4686 232° Southwest 465 535 33,200 -650 Descending New York Center
Fri 06:34:45 PM 41.2714 -73.6033 232° Southwest 470 541 32,300 -595 Descending New York Center
Fri 06:35:46 PM 41.1908 -73.7406 232° Southwest 475 547 32,000 -148 Descending New York Center
Fri 06:36:47 PM 41.1083 -73.8775 231° Southwest 480 552 32,000  Level New York Center
Fri 06:37:44 PM 41.0275 -74.0139 232° Southwest 480 552 32,000 -356 Level New York Center
Fri 06:38:45 PM 40.9467 -74.1500 232° Southwest 475 547 31,300 -1,983 Descending New York Center
Fri 06:39:45 PM 40.8528 -74.2964 230° Southwest 475 547 28,000 -2,672 Descending New York Center
Fri 06:40:44 PM 40.7758 -74.4267 232° Southwest 480 552 26,000 -992 Descending New York Center
Fri 06:41:46 PM 40.6967 -74.5564 231° Southwest 474 545 26,000 -49 Level New York Center
Fri 06:42:46 PM 40.6317 -74.7033 240° Southwest 469 540 25,900 -1,190 Descending New York Center
Fri 06:43:47 PM 40.5642 -74.8469 238° Southwest 469 540 23,600 -1,934 Descending New York Center
Fri 06:44:47 PM 40.5028 -74.9881 240° Southwest 458 527 22,000 -974 Descending New York Center
Fri 06:45:44 PM 40.4417 -75.1289 240° Southwest 448 516 21,700 -1,311 Descending New York Center
Fri 06:46:46 PM 40.3819 -75.2694 241° Southwest 448 516 19,400 -1,805 Descending New York Center
Fri 06:47:47 PM 40.3128 -75.3928 234° Southwest 443 510 18,000 -694 Descending New York Center
Fri 06:48:47 PM 40.2075 -75.4728 210° Southwest 425 489 18,000  Level New York Center
Fri 06:49:47 PM 40.1022 -75.5472 208° Southwest 433 498 18,000 -51 Level New York Center
Fri 06:50:45 PM 39.9972 -75.6186 208° Southwest 433 498 17,900 -356 Descending New York Center
Fri 06:51:45 PM 39.9000 -75.7036 214° Southwest 428 493 17,300 -443 Descending New York Center
Fri 06:52:47 PM 39.8364 -75.8264 236° Southwest 415 478 17,000 -1,209 Descending New York Center
Fri 06:54:00 PM 39.7597 -75.9543 247° West  Level FlightAware Approximate
Fri 06:56:08 PM 39.6333 -76.2167 218° Southwest 324 373 12,000  Level Potomac TRACON
Fri 06:57:08 PM 39.6000 -76.3167 247° West 307 353 10,800 -1,400 Descending Potomac TRACON
Fri 06:58:08 PM 39.5500 -76.4167 237° Southwest 297 342 9,200 -1,533 Descending Potomac TRACON
Fri 07:00:08 PM 39.4833 -76.6000 245° Southwest 291 335 6,200 -1,300 Descending Potomac TRACON
Fri 07:01:00 PM 39.2690 -76.5644 218° Southwest  Level FlightAware Approximate
Fri 07:02:08 PM 39.4000 -76.7667 237° Southwest 277 319 4,000  Level Potomac TRACON
Fri 07:03:08 PM 39.3667 -76.8500 243° Southwest 274 315 3,600 -250 Descending Potomac TRACON
Fri 07:05:00 PM 39.2086 -76.6998 144° Southeast  Level Estimated
Fri 07:06:08 PM 39.1833 -76.9167 144° Southeast 202 232 3,000  Level Potomac TRACON
Fri 07:07:08 PM 39.1833 -76.8500 90° East 188 216 2,500 -694 Descending Potomac TRACON
Fri 07:08:09 PM 39.1833 -76.7833 90° East 167 192 1,600 -744 Descending Potomac TRACON
Fri 07:09:09 PM 39.1833 -76.7333 90° East 137 158 1,000 200 Descending Potomac TRACON
Fri 07:10:09 PM 39.1833 -76.6833 90° East 165 190 2,000 500 Climbing Potomac TRACON
Fri 07:11:09 PM 39.1333 -76.6500 153° Southeast 217 250 2,000  Level Potomac TRACON

Login

Don't have an account? Register now (free) for customized features, flight alerts, and more!